createdAt,value
2019-01-24T00:02:08.856Z,28.50
2019-01-24T00:04:35.938Z,28.30
2019-01-24T00:07:03.040Z,28.97
2019-01-24T00:09:30.145Z,28.37
2019-01-24T00:11:57.252Z,27.90
2019-01-24T00:14:24.340Z,28.87
2019-01-24T00:16:51.404Z,28.77
2019-01-24T00:19:18.528Z,27.90
2019-01-24T00:21:45.621Z,28.00
2019-01-24T00:24:12.701Z,28.80
2019-01-24T00:26:39.784Z,31.40
2019-01-24T00:29:06.889Z,27.97
2019-01-24T00:31:33.970Z,29.23
2019-01-24T00:34:01.061Z,27.63
2019-01-24T00:36:28.152Z,28.00
2019-01-24T00:38:55.252Z,28.00
2019-01-24T00:41:22.333Z,28.20
2019-01-24T00:43:49.426Z,29.23
2019-01-24T00:46:16.492Z,26.47
2019-01-24T00:48:43.569Z,28.13
2019-01-24T00:51:10.660Z,32.17
2019-01-24T00:53:37.748Z,28.73
2019-01-24T00:56:04.829Z,28.90
2019-01-24T00:58:31.909Z,29.10
2019-01-24T01:00:58.987Z,27.50
2019-01-24T01:03:26.081Z,27.07
2019-01-24T01:05:53.172Z,25.77
2019-01-24T01:08:20.270Z,26.10
2019-01-24T01:10:47.380Z,25.13
2019-01-24T01:13:14.469Z,29.80
2019-01-24T01:15:41.593Z,26.70
2019-01-24T01:18:08.672Z,25.40
2019-01-24T01:20:35.806Z,27.57
2019-01-24T01:23:02.932Z,27.20
2019-01-24T01:25:30.018Z,24.50
2019-01-24T01:27:57.093Z,26.20
2019-01-24T01:30:24.224Z,27.20
2019-01-24T01:32:51.684Z,25.07
2019-01-24T01:35:18.755Z,26.40
2019-01-24T01:37:45.869Z,25.83
2019-01-24T01:40:13.491Z,27.93
2019-01-24T01:42:40.621Z,28.40
2019-01-24T01:45:10.852Z,26.83
2019-01-24T01:47:37.920Z,27.37
2019-01-24T01:50:05.764Z,23.80
2019-01-24T01:52:32.857Z,28.40
2019-01-24T01:54:59.944Z,26.20
2019-01-24T01:57:27.028Z,27.67
2019-01-24T01:59:54.134Z,24.50
2019-01-24T02:02:21.227Z,28.13
2019-01-24T02:04:48.315Z,27.03
2019-01-24T02:07:15.368Z,26.07
2019-01-24T02:09:42.483Z,25.53
2019-01-24T02:12:09.571Z,27.13
2019-01-24T02:14:36.660Z,28.17
2019-01-24T02:17:03.759Z,25.57
2019-01-24T02:19:30.870Z,25.60
2019-01-24T02:21:57.986Z,26.43
2019-01-24T02:24:25.053Z,24.93
2019-01-24T02:26:52.140Z,26.60
2019-01-24T02:29:19.208Z,23.33
2019-01-24T02:31:46.280Z,26.00
2019-01-24T02:34:13.352Z,24.80
2019-01-24T02:36:40.423Z,26.97
2019-01-24T02:39:07.529Z,27.03
2019-01-24T02:41:34.625Z,29.80
2019-01-24T02:44:01.705Z,26.80
2019-01-24T02:46:28.846Z,24.57
2019-01-24T02:48:55.937Z,26.97
2019-01-24T02:51:23.069Z,27.77
2019-01-24T02:53:50.160Z,25.37
2019-01-24T02:56:17.231Z,23.27
2019-01-24T02:58:44.328Z,25.07
2019-01-24T03:01:11.400Z,23.53
2019-01-24T03:03:38.503Z,28.07
2019-01-24T03:06:05.600Z,24.20
2019-01-24T03:08:32.700Z,25.17
2019-01-24T03:10:59.790Z,25.00
2019-01-24T03:13:26.881Z,25.30
2019-01-24T03:15:54.006Z,24.57
2019-01-24T03:18:21.112Z,23.17
2019-01-24T03:20:48.177Z,24.30
2019-01-24T03:23:15.269Z,22.57
2019-01-24T03:25:42.336Z,24.63
2019-01-24T03:28:09.418Z,25.03
2019-01-24T03:30:36.567Z,21.87
2019-01-24T03:33:03.724Z,24.97
2019-01-24T03:35:30.781Z,23.53
2019-01-24T03:37:57.899Z,25.97
2019-01-24T03:40:25.005Z,24.57
2019-01-24T03:42:52.097Z,26.73
2019-01-24T03:45:19.180Z,24.23
2019-01-24T03:47:46.282Z,24.80
2019-01-24T03:50:15.758Z,24.80
2019-01-24T03:52:42.885Z,24.57
2019-01-24T03:55:10.195Z,24.80
2019-01-24T03:57:37.294Z,23.30
2019-01-24T04:00:06.665Z,23.07
2019-01-24T04:02:33.752Z,25.10
2019-01-24T04:05:00.833Z,23.73
2019-01-24T04:07:27.949Z,26.30
2019-01-24T04:09:55.035Z,25.27
2019-01-24T04:12:22.126Z,25.53
2019-01-24T04:14:49.229Z,24.40
2019-01-24T04:17:16.312Z,24.43
2019-01-24T04:19:43.361Z,23.93
2019-01-24T04:22:10.445Z,25.83
2019-01-24T04:24:37.542Z,24.77
2019-01-24T04:27:04.611Z,22.17
2019-01-24T04:29:31.705Z,23.90
2019-01-24T04:31:58.807Z,25.53
2019-01-24T04:34:25.897Z,24.57
2019-01-24T04:36:52.997Z,23.90
2019-01-24T04:39:20.089Z,24.03
2019-01-24T04:41:47.168Z,24.73
2019-01-24T04:44:14.281Z,22.90
2019-01-24T04:46:41.356Z,24.13
2019-01-24T04:49:08.781Z,24.53
2019-01-24T04:51:35.516Z,25.70
2019-01-24T04:54:02.600Z,24.47
2019-01-24T04:56:29.739Z,27.10
2019-01-24T04:58:56.808Z,25.17
2019-01-24T05:01:23.906Z,23.73
2019-01-24T05:03:51.002Z,24.20
2019-01-24T05:06:18.127Z,26.40
2019-01-24T05:08:45.243Z,27.90
2019-01-24T05:11:12.329Z,24.70
2019-01-24T05:13:39.391Z,27.30
2019-01-24T05:16:06.481Z,26.53
2019-01-24T05:18:33.561Z,27.30
2019-01-24T05:21:00.669Z,25.73
2019-01-24T05:23:27.787Z,28.93
2019-01-24T05:25:54.890Z,27.13
2019-01-24T05:28:21.978Z,27.83
2019-01-24T05:30:49.066Z,26.43
2019-01-24T05:33:16.164Z,26.00
2019-01-24T05:35:43.274Z,25.13
2019-01-24T05:38:10.374Z,25.00
2019-01-24T05:40:37.436Z,25.97
2019-01-24T05:43:04.538Z,28.43
2019-01-24T05:45:31.622Z,26.43
2019-01-24T05:47:58.703Z,24.97
2019-01-24T05:50:25.776Z,25.77
2019-01-24T05:52:52.885Z,27.07
2019-01-24T05:55:19.949Z,24.70
2019-01-24T05:57:47.040Z,26.67
2019-01-24T06:00:17.804Z,25.33
2019-01-24T06:02:44.910Z,24.33
2019-01-24T06:05:12.071Z,26.63
2019-01-24T06:07:39.186Z,26.67
2019-01-24T06:10:09.368Z,27.50
2019-01-24T06:12:36.452Z,26.10
2019-01-24T06:15:04.246Z,25.27
2019-01-24T06:17:31.341Z,26.00
2019-01-24T06:19:58.429Z,23.67
2019-01-24T06:22:25.525Z,24.10
2019-01-24T06:24:52.624Z,25.77
2019-01-24T06:27:19.708Z,24.27
2019-01-24T06:29:46.809Z,24.30
2019-01-24T06:32:13.878Z,25.37
2019-01-24T06:34:40.972Z,25.93
2019-01-24T06:37:08.053Z,25.63
2019-01-24T06:39:35.121Z,24.27
2019-01-24T06:42:02.220Z,25.10
2019-01-24T06:44:29.316Z,22.87
2019-01-24T06:46:56.429Z,24.50
2019-01-24T06:49:23.528Z,23.70
2019-01-24T06:51:50.615Z,22.83
2019-01-24T06:54:17.692Z,24.00
2019-01-24T06:56:44.774Z,23.93
2019-01-24T06:59:11.885Z,25.30
2019-01-24T07:01:38.974Z,19.53
2019-01-24T07:04:06.080Z,23.37
2019-01-24T07:06:33.192Z,21.17
2019-01-24T07:09:00.274Z,20.90
2019-01-24T07:11:27.349Z,21.30
2019-01-24T07:13:54.453Z,21.17
2019-01-24T07:16:21.597Z,20.47
2019-01-24T07:18:48.676Z,19.40
2019-01-24T07:21:15.796Z,21.13
2019-01-24T07:23:42.872Z,20.83
2019-01-24T07:26:09.965Z,19.40
2019-01-24T07:28:37.047Z,21.37
2019-01-24T07:31:04.154Z,22.20
2019-01-24T07:33:31.253Z,22.50
2019-01-24T07:36:02.145Z,22.07
2019-01-24T07:38:25.444Z,21.23
2019-01-24T07:40:52.530Z,20.87
2019-01-24T07:43:19.613Z,20.17
2019-01-24T07:45:46.713Z,18.63
2019-01-24T07:48:13.803Z,19.63
2019-01-24T07:50:40.957Z,18.30
2019-01-24T07:53:08.043Z,19.20
2019-01-24T07:55:35.367Z,19.50
2019-01-24T07:58:02.458Z,19.63
2019-01-24T08:00:29.552Z,19.70
2019-01-24T08:02:56.616Z,19.90
2019-01-24T08:05:24.191Z,20.60
2019-01-24T08:07:51.282Z,22.80
2019-01-24T08:10:18.994Z,17.87
2019-01-24T08:12:46.082Z,18.40
2019-01-24T08:15:14.253Z,18.03
2019-01-24T08:17:41.368Z,19.83
2019-01-24T08:20:11.164Z,18.47
2019-01-24T08:22:38.269Z,21.57
2019-01-24T08:25:06.164Z,18.33
2019-01-24T08:27:33.245Z,18.37
2019-01-24T08:30:00.346Z,16.47
2019-01-24T08:32:27.450Z,19.87
2019-01-24T08:34:54.601Z,17.93
2019-01-24T08:37:21.668Z,21.67
2019-01-24T08:39:48.756Z,18.20
2019-01-24T08:42:15.816Z,16.27
2019-01-24T08:44:42.926Z,18.17
2019-01-24T08:47:10.008Z,20.53
2019-01-24T08:49:37.130Z,17.70
2019-01-24T08:52:04.252Z,18.20
2019-01-24T08:54:31.336Z,21.77
2019-01-24T08:56:58.446Z,19.57
2019-01-24T08:59:29.503Z,17.80
2019-01-24T09:01:52.677Z,18.97
2019-01-24T09:04:19.758Z,18.80
2019-01-24T09:06:46.859Z,17.50
2019-01-24T09:09:13.953Z,18.03
2019-01-24T09:11:41.045Z,19.63
2019-01-24T09:14:08.138Z,19.63
2019-01-24T09:16:35.228Z,19.17
2019-01-24T09:19:02.380Z,18.27
2019-01-24T09:21:29.464Z,19.23
2019-01-24T09:23:56.525Z,19.43
2019-01-24T09:26:23.629Z,18.13
2019-01-24T09:28:50.701Z,19.87
2019-01-24T09:31:17.781Z,18.37
2019-01-24T09:33:44.856Z,18.20
2019-01-24T09:36:11.940Z,19.93
2019-01-24T09:38:39.045Z,17.53
2019-01-24T09:41:06.136Z,19.07
2019-01-24T09:43:33.232Z,20.03
2019-01-24T09:46:00.325Z,18.20
2019-01-24T09:48:27.409Z,20.03
2019-01-24T09:50:54.519Z,20.13
2019-01-24T09:53:21.599Z,18.50
2019-01-24T09:55:48.680Z,17.60
2019-01-24T09:58:15.780Z,20.00
2019-01-24T10:00:42.877Z,18.57
2019-01-24T10:03:09.971Z,20.37
2019-01-24T10:05:37.113Z,19.23
2019-01-24T10:08:05.181Z,18.47
2019-01-24T10:10:32.257Z,18.80
2019-01-24T10:12:59.328Z,20.03
2019-01-24T10:15:26.447Z,19.23
2019-01-24T10:17:53.545Z,21.33
2019-01-24T10:20:21.824Z,19.07
2019-01-24T10:22:48.911Z,17.90
2019-01-24T10:25:19.380Z,17.90
2019-01-24T10:27:46.454Z,18.33
2019-01-24T10:30:15.157Z,17.90
2019-01-24T10:32:42.251Z,19.77
2019-01-24T10:35:09.396Z,21.07
2019-01-24T10:37:36.468Z,18.60
2019-01-24T10:40:05.417Z,21.33
2019-01-24T10:42:32.489Z,23.03
2019-01-24T10:44:59.559Z,18.53
2019-01-24T10:47:26.723Z,19.23
2019-01-24T10:49:53.808Z,19.13
2019-01-24T10:52:20.939Z,20.60
2019-01-24T10:54:48.025Z,20.33
2019-01-24T10:57:15.169Z,18.80
2019-01-24T10:59:42.244Z,19.77
2019-01-24T11:02:09.320Z,19.17
2019-01-24T11:04:36.396Z,20.27
2019-01-24T11:07:03.481Z,18.83
2019-01-24T11:09:30.562Z,19.47
2019-01-24T11:11:57.665Z,19.67
2019-01-24T11:14:24.763Z,19.13
2019-01-24T11:16:51.853Z,19.63
2019-01-24T11:19:18.940Z,18.30
2019-01-24T11:21:46.027Z,20.00
2019-01-24T11:24:13.111Z,19.93
2019-01-24T11:26:40.189Z,21.13
2019-01-24T11:29:07.280Z,19.77
2019-01-24T11:31:34.400Z,21.90
2019-01-24T11:34:01.469Z,18.90
2019-01-24T11:36:28.597Z,22.07
2019-01-24T11:38:55.705Z,21.17
2019-01-24T11:41:22.846Z,18.37
2019-01-24T11:43:49.945Z,20.30
2019-01-24T11:46:17.051Z,20.77
2019-01-24T11:48:44.144Z,22.03
2019-01-24T11:51:11.233Z,22.07
2019-01-24T11:53:38.316Z,24.00
2019-01-24T11:56:06.251Z,21.80
2019-01-24T11:58:32.462Z,21.87
2019-01-24T12:00:59.568Z,22.10
2019-01-24T12:03:26.628Z,23.13
2019-01-24T12:05:53.706Z,24.83
2019-01-24T12:08:20.808Z,22.07
2019-01-24T12:10:47.874Z,21.60
2019-01-24T12:13:14.975Z,23.33
2019-01-24T12:15:42.058Z,23.30
2019-01-24T12:18:09.141Z,24.43
2019-01-24T12:20:36.249Z,25.77
2019-01-24T12:23:03.345Z,26.57
2019-01-24T12:25:30.423Z,23.63
2019-01-24T12:27:57.520Z,25.13
2019-01-24T12:30:26.509Z,25.33
2019-01-24T12:32:53.600Z,25.67
2019-01-24T12:35:20.727Z,23.90
2019-01-24T12:37:47.847Z,24.77
2019-01-24T12:40:14.957Z,27.53
2019-01-24T12:42:42.008Z,26.80
2019-01-24T12:45:12.109Z,26.57
2019-01-24T12:47:39.218Z,25.97
2019-01-24T12:50:07.744Z,28.77
2019-01-24T12:52:34.832Z,25.63
2019-01-24T12:55:01.928Z,26.60
2019-01-24T12:57:28.988Z,25.97
2019-01-24T12:59:56.088Z,26.97
2019-01-24T13:02:23.184Z,25.63
2019-01-24T13:04:50.269Z,26.57
2019-01-24T13:07:18.441Z,24.50
2019-01-24T13:09:44.467Z,27.90
2019-01-24T13:12:11.576Z,25.57
2019-01-24T13:14:38.668Z,30.30
2019-01-24T13:17:05.741Z,21.83
2019-01-24T13:19:32.816Z,28.20
2019-01-24T13:21:59.906Z,28.13
2019-01-24T13:24:27.001Z,25.33
2019-01-24T13:26:54.074Z,27.70
2019-01-24T13:29:21.192Z,26.90
2019-01-24T13:31:48.284Z,24.43
2019-01-24T13:34:15.362Z,25.70
2019-01-24T13:36:42.448Z,26.53
2019-01-24T13:39:10.384Z,27.53
2019-01-24T13:41:42.420Z,24.30
2019-01-24T13:44:04.617Z,26.03
2019-01-24T13:46:31.675Z,24.57
2019-01-24T13:48:58.767Z,26.13
2019-01-24T13:51:25.855Z,25.83
2019-01-24T13:53:52.966Z,25.20
2019-01-24T13:56:20.058Z,23.80
2019-01-24T13:58:47.182Z,26.60
2019-01-24T14:01:14.272Z,25.87
2019-01-24T14:03:49.280Z,24.17
2019-01-24T14:06:16.377Z,27.20
2019-01-24T14:08:43.468Z,25.57
2019-01-24T14:11:10.558Z,29.90
2019-01-24T14:13:37.624Z,26.33
2019-01-24T14:16:04.737Z,25.03
2019-01-24T14:18:31.832Z,24.70
2019-01-24T14:20:58.918Z,23.87
2019-01-24T14:23:25.985Z,23.63
2019-01-24T14:25:53.086Z,23.93
2019-01-24T14:28:20.172Z,25.47
2019-01-24T14:30:47.256Z,25.77
2019-01-24T14:33:14.357Z,27.27
2019-01-24T14:35:41.448Z,27.47
2019-01-24T14:38:08.571Z,24.63
2019-01-24T14:40:35.662Z,25.67
2019-01-24T14:43:02.723Z,26.97
2019-01-24T14:45:29.820Z,26.00
2019-01-24T14:47:56.880Z,25.70
2019-01-24T14:50:24.969Z,26.43
2019-01-24T14:52:52.042Z,25.73
2019-01-24T14:55:19.121Z,25.13
2019-01-24T14:57:46.253Z,23.97
2019-01-24T15:00:33.958Z,26.17
2019-01-24T15:03:01.082Z,25.27
2019-01-24T15:05:28.200Z,25.27
2019-01-24T15:07:55.281Z,25.13
2019-01-24T15:10:22.375Z,25.63
2019-01-24T15:12:49.469Z,27.10
2019-01-24T15:15:16.628Z,27.20
2019-01-24T15:17:43.697Z,23.83
2019-01-24T15:20:10.824Z,27.50
2019-01-24T15:22:37.993Z,28.47
2019-01-24T15:25:06.181Z,24.83
2019-01-24T15:27:33.274Z,23.43
2019-01-24T15:30:00.365Z,25.53
2019-01-24T15:32:27.436Z,27.17
2019-01-24T15:34:54.508Z,28.53
2019-01-24T15:37:21.651Z,25.00
2019-01-24T15:39:48.737Z,24.73
2019-01-24T15:42:15.817Z,27.87
2019-01-24T15:44:42.921Z,26.70
2019-01-24T15:47:09.992Z,30.37
2019-01-24T15:49:37.085Z,25.40
2019-01-24T15:52:04.224Z,27.57
2019-01-24T15:54:31.333Z,25.27
2019-01-24T15:56:58.408Z,22.23
2019-01-24T15:59:25.488Z,28.63
2019-01-24T16:01:52.559Z,28.67
2019-01-24T16:04:20.075Z,26.17
2019-01-24T16:06:46.840Z,26.53
2019-01-24T16:09:13.945Z,29.40
2019-01-24T16:11:41.057Z,24.30
2019-01-24T16:14:08.169Z,25.43
2019-01-24T16:16:35.272Z,30.13
2019-01-24T16:19:02.361Z,24.97
2019-01-24T16:21:29.472Z,26.07
2019-01-24T16:23:56.652Z,24.93
2019-01-24T16:26:23.780Z,27.63
2019-01-24T16:28:50.907Z,27.03
2019-01-24T16:31:18.041Z,25.33
2019-01-24T16:33:45.166Z,26.87
2019-01-24T16:36:12.269Z,29.53
2019-01-24T16:38:39.368Z,27.00
2019-01-24T16:41:06.477Z,26.97
2019-01-24T16:43:33.608Z,27.40
2019-01-24T16:46:00.693Z,27.10
2019-01-24T16:48:27.804Z,29.07
2019-01-24T16:50:54.899Z,28.70
2019-01-24T16:53:21.988Z,27.83
2019-01-24T16:55:49.089Z,29.23
2019-01-24T16:58:16.177Z,28.30
2019-01-24T17:00:51.780Z,29.03
2019-01-24T17:03:18.883Z,32.00
2019-01-24T17:05:45.996Z,27.90
2019-01-24T17:08:16.684Z,30.50
2019-01-24T17:10:40.235Z,31.00
2019-01-24T17:13:08.062Z,29.17
2019-01-24T17:15:35.158Z,32.67
2019-01-24T17:18:02.274Z,41.17
2019-01-24T17:20:29.368Z,29.63
2019-01-24T17:22:56.461Z,35.27
2019-01-24T17:25:24.799Z,39.50
2019-01-24T17:27:51.918Z,34.03
2019-01-24T17:30:20.982Z,37.90
2019-01-24T17:32:48.116Z,35.33
2019-01-24T17:35:15.261Z,39.37
2019-01-24T17:37:42.417Z,38.80
2019-01-24T17:40:13.751Z,37.90
2019-01-24T17:42:40.109Z,41.37
2019-01-24T17:45:09.000Z,37.03
2019-01-24T17:47:36.101Z,42.13
2019-01-24T17:50:03.942Z,43.17
2019-01-24T17:52:31.054Z,34.40
2019-01-24T17:54:58.146Z,36.97
2019-01-24T17:57:25.244Z,44.77
2019-01-24T17:59:52.345Z,37.83
2019-01-24T18:02:19.444Z,39.37
2019-01-24T18:04:46.528Z,46.53
2019-01-24T18:07:13.773Z,45.27
2019-01-24T18:09:40.857Z,49.17
2019-01-24T18:12:07.928Z,41.90
2019-01-24T18:14:35.039Z,35.07
2019-01-24T18:17:02.186Z,39.27
2019-01-24T18:19:29.247Z,40.27
2019-01-24T18:21:56.341Z,35.23
2019-01-24T18:24:23.413Z,33.37
2019-01-24T18:26:50.508Z,36.20
2019-01-24T18:29:17.581Z,35.97
2019-01-24T18:31:44.652Z,40.67
2019-01-24T18:34:11.736Z,35.97
2019-01-24T18:36:38.813Z,37.90
2019-01-24T18:39:08.808Z,36.30
2019-01-24T18:41:35.922Z,34.20
2019-01-24T18:44:03.009Z,33.30
2019-01-24T18:46:30.097Z,33.17
2019-01-24T18:48:57.205Z,37.80
2019-01-24T18:51:24.280Z,31.33
2019-01-24T18:53:51.352Z,36.00
2019-01-24T18:56:18.433Z,32.87
2019-01-24T18:58:45.504Z,32.47
2019-01-24T19:01:12.583Z,32.43
2019-01-24T19:03:40.447Z,35.40
2019-01-24T19:06:06.784Z,34.63
2019-01-24T19:08:33.863Z,33.57
2019-01-24T19:11:00.950Z,31.73
2019-01-24T19:13:28.039Z,33.70
2019-01-24T19:15:55.113Z,33.13
2019-01-24T19:18:22.179Z,36.33
2019-01-24T19:20:49.314Z,32.47
2019-01-24T19:23:16.413Z,33.00
2019-01-24T19:25:43.504Z,34.03
2019-01-24T19:28:12.704Z,34.47
2019-01-24T19:30:39.788Z,30.97
2019-01-24T19:33:06.917Z,32.37
2019-01-24T19:35:34.032Z,31.80
2019-01-24T19:38:01.125Z,31.80
2019-01-24T19:40:28.248Z,31.37
2019-01-24T19:42:55.369Z,30.67
2019-01-24T19:45:23.213Z,28.40
2019-01-24T19:47:50.304Z,31.13
2019-01-24T19:50:19.225Z,32.50
2019-01-24T19:52:46.360Z,28.17
2019-01-24T19:55:13.455Z,30.57
2019-01-24T19:57:40.529Z,33.77
2019-01-24T20:00:11.372Z,32.67
2019-01-24T20:02:38.457Z,32.00
2019-01-24T20:05:06.776Z,27.83
2019-01-24T20:07:33.873Z,31.20
2019-01-24T20:10:01.353Z,28.07
2019-01-24T20:12:28.164Z,32.87
2019-01-24T20:14:55.252Z,31.03
2019-01-24T20:17:22.342Z,33.33
2019-01-24T20:19:49.424Z,28.47
2019-01-24T20:22:16.552Z,31.90
2019-01-24T20:24:43.616Z,29.77
2019-01-24T20:27:10.710Z,29.30
2019-01-24T20:29:37.801Z,31.83
2019-01-24T20:32:04.906Z,28.60
2019-01-24T20:34:31.989Z,30.90
2019-01-24T20:36:59.078Z,26.50
2019-01-24T20:39:26.161Z,28.57
2019-01-24T20:41:53.253Z,30.00
2019-01-24T20:44:20.344Z,28.63
2019-01-24T20:46:47.430Z,27.93
2019-01-24T20:49:14.501Z,30.47
2019-01-24T20:51:41.602Z,27.93
2019-01-24T20:54:08.677Z,30.57
2019-01-24T20:56:35.790Z,30.77
2019-01-24T20:59:02.871Z,26.30
2019-01-24T21:01:29.996Z,28.33
2019-01-24T21:03:57.087Z,28.60
2019-01-24T21:06:24.180Z,26.93
2019-01-24T21:08:51.289Z,27.10
2019-01-24T21:11:18.408Z,28.90
2019-01-24T21:13:45.493Z,28.23
2019-01-24T21:16:12.588Z,28.87
2019-01-24T21:18:39.680Z,28.20
2019-01-24T21:21:06.793Z,26.47
2019-01-24T21:23:33.921Z,27.00
2019-01-24T21:26:01.018Z,29.10
2019-01-24T21:28:28.145Z,28.43
2019-01-24T21:30:55.230Z,31.00
2019-01-24T21:33:22.350Z,26.23
2019-01-24T21:35:49.432Z,26.20
2019-01-24T21:38:16.542Z,28.10
2019-01-24T21:40:43.633Z,29.13
2019-01-24T21:43:10.717Z,29.63
2019-01-24T21:45:37.820Z,25.80
2019-01-24T21:48:06.452Z,26.10
2019-01-24T21:50:33.557Z,29.53
2019-01-24T21:53:00.615Z,29.70
2019-01-24T21:55:27.727Z,28.20
2019-01-24T21:57:54.881Z,28.83
2019-01-24T22:00:22.877Z,31.27
2019-01-24T22:02:50.018Z,28.27
2019-01-24T22:05:17.241Z,24.93
2019-01-24T22:07:44.341Z,29.13
2019-01-24T22:10:13.464Z,26.43
2019-01-24T22:12:40.565Z,26.57
2019-01-24T22:15:10.492Z,30.77
2019-01-24T22:17:37.580Z,30.00
2019-01-24T22:20:04.747Z,28.03
2019-01-24T22:22:31.837Z,28.77
2019-01-24T22:24:58.904Z,27.57
2019-01-24T22:27:25.981Z,29.17
2019-01-24T22:29:53.082Z,27.70
2019-01-24T22:32:20.178Z,27.30
2019-01-24T22:34:47.252Z,26.87
2019-01-24T22:37:15.006Z,27.77
2019-01-24T22:39:43.039Z,28.53
2019-01-24T22:42:09.232Z,27.87
2019-01-24T22:44:36.315Z,27.50
2019-01-24T22:47:03.426Z,28.13
2019-01-24T22:49:30.522Z,29.03
2019-01-24T22:51:57.633Z,27.23
2019-01-24T22:54:24.728Z,30.07
2019-01-24T22:56:51.788Z,26.77
2019-01-24T22:59:18.893Z,32.00
2019-01-24T23:01:49.268Z,28.77
2019-01-24T23:04:18.906Z,26.47
2019-01-24T23:06:46.021Z,25.83
2019-01-24T23:09:13.100Z,27.23
2019-01-24T23:11:40.213Z,28.77
2019-01-24T23:14:07.325Z,26.40
2019-01-24T23:16:34.413Z,28.23
2019-01-24T23:19:01.508Z,28.60
2019-01-24T23:21:28.593Z,30.90
2019-01-24T23:23:55.680Z,27.83
2019-01-24T23:26:22.788Z,27.43
2019-01-24T23:28:49.882Z,30.60
2019-01-24T23:31:16.973Z,26.77
2019-01-24T23:33:44.061Z,29.63
2019-01-24T23:36:11.164Z,30.80
2019-01-24T23:38:38.237Z,27.10
2019-01-24T23:41:05.340Z,31.47
2019-01-24T23:43:32.531Z,30.03
2019-01-24T23:45:59.577Z,31.20
2019-01-24T23:48:26.652Z,27.67
2019-01-24T23:50:53.746Z,29.23
2019-01-24T23:53:20.828Z,27.83
2019-01-24T23:55:47.969Z,31.53
2019-01-24T23:58:15.069Z,31.57
